Terminal Aerodrome Forecast
Issued by NWS

Home | Current Version | Previous Version | Graphics & Text | Print | Product List | Glossary On
Versions: 1 2 3 4 5 6 7 8 9 10 11 12 13
000
FTUS43 KMPX 100529
TAFRWF
TAF
KRWF 100529Z 1006/1106 28009KT P6SM FEW200
     FM100900 30012G18KT P6SM SCT025 BKN150
     FM101500 32012KT P6SM SCT020 OVC050
     FM102200 31012KT P6SM SCT015 BKN020
     FM110500 22007KT P6SM VCSH OVC015=

USA.gov is the U.S. government's official web portal to all federal, state and local government web resources and services.